sensor_id;sensor_type;location;lat;lon;timestamp;temperature;humidity
15656;DHT22;7928;43.614;1.456;2023-08-12T00:00:12;25.30;94.90
15656;DHT22;7928;43.614;1.456;2023-08-12T00:02:39;25.30;95.00
15656;DHT22;7928;43.614;1.456;2023-08-12T00:05:07;25.30;95.30
15656;DHT22;7928;43.614;1.456;2023-08-12T00:07:36;25.20;95.60
15656;DHT22;7928;43.614;1.456;2023-08-12T00:10:05;25.20;95.80
15656;DHT22;7928;43.614;1.456;2023-08-12T00:12:33;25.20;95.90
15656;DHT22;7928;43.614;1.456;2023-08-12T00:15:02;25.20;96.00
15656;DHT22;7928;43.614;1.456;2023-08-12T00:17:30;25.10;96.20
15656;DHT22;7928;43.614;1.456;2023-08-12T00:19:57;25.10;96.40
15656;DHT22;7928;43.614;1.456;2023-08-12T00:22:24;25.00;96.60
15656;DHT22;7928;43.614;1.456;2023-08-12T00:24:51;25.00;96.80
15656;DHT22;7928;43.614;1.456;2023-08-12T00:27:18;25.00;97.00
15656;DHT22;7928;43.614;1.456;2023-08-12T00:29:45;24.90;97.10
15656;DHT22;7928;43.614;1.456;2023-08-12T00:32:13;24.90;97.30
15656;DHT22;7928;43.614;1.456;2023-08-12T00:34:40;24.90;97.50
15656;DHT22;7928;43.614;1.456;2023-08-12T00:37:07;24.90;97.50
15656;DHT22;7928;43.614;1.456;2023-08-12T00:39:34;24.90;97.80
15656;DHT22;7928;43.614;1.456;2023-08-12T00:42:01;24.90;98.00
15656;DHT22;7928;43.614;1.456;2023-08-12T00:44:28;24.80;98.20
15656;DHT22;7928;43.614;1.456;2023-08-12T00:46:55;24.80;98.50
15656;DHT22;7928;43.614;1.456;2023-08-12T00:49:24;24.80;98.60
15656;DHT22;7928;43.614;1.456;2023-08-12T00:51:52;24.80;98.80
15656;DHT22;7928;43.614;1.456;2023-08-12T00:54:21;24.80;99.00
15656;DHT22;7928;43.614;1.456;2023-08-12T00:56:48;24.70;99.10
15656;DHT22;7928;43.614;1.456;2023-08-12T00:59:16;24.70;99.40
15656;DHT22;7928;43.614;1.456;2023-08-12T01:01:44;24.60;99.60
15656;DHT22;7928;43.614;1.456;2023-08-12T01:04:11;24.60;99.70
15656;DHT22;7928;43.614;1.456;2023-08-12T01:06:40;24.60;99.90
15656;DHT22;7928;43.614;1.456;2023-08-12T01:09:07;24.50;99.90
15656;DHT22;7928;43.614;1.456;2023-08-12T01:11:49;24.60;99.90
15656;DHT22;7928;43.614;1.456;2023-08-12T01:14:23;24.60;99.90
15656;DHT22;7928;43.614;1.456;2023-08-12T01:16:58;24.60;99.90
15656;DHT22;7928;43.614;1.456;2023-08-12T01:19:33;24.50;99.90
15656;DHT22;7928;43.614;1.456;2023-08-12T01:22:03;24.60;99.90
15656;DHT22;7928;43.614;1.456;2023-08-12T01:24:35;24.50;99.90
15656;DHT22;7928;43.614;1.456;2023-08-12T01:27:03;24.50;99.90
15656;DHT22;7928;43.614;1.456;2023-08-12T01:29:30;24.50;99.90
15656;DHT22;7928;43.614;1.456;2023-08-12T01:32:04;24.50;99.90
15656;DHT22;7928;43.614;1.456;2023-08-12T01:34:37;24.40;99.90
15656;DHT22;7928;43.614;1.456;2023-08-12T01:37:08;24.40;99.90
15656;DHT22;7928;43.614;1.456;2023-08-12T01:39:39;24.30;99.90
15656;DHT22;7928;43.614;1.456;2023-08-12T01:42:06;24.20;99.90
15656;DHT22;7928;43.614;1.456;2023-08-12T01:44:34;24.10;99.90
15656;DHT22;7928;43.614;1.456;2023-08-12T01:47:01;24.10;99.90
15656;DHT22;7928;43.614;1.456;2023-08-12T01:49:28;24.10;99.90
15656;DHT22;7928;43.614;1.456;2023-08-12T01:51:55;24.00;99.90
15656;DHT22;7928;43.614;1.456;2023-08-12T01:54:22;23.90;99.90
15656;DHT22;7928;43.614;1.456;2023-08-12T01:56:50;23.90;99.90
15656;DHT22;7928;43.614;1.456;2023-08-12T01:59:17;23.90;99.90
15656;DHT22;7928;43.614;1.456;2023-08-12T02:01:44;24.00;99.90
15656;DHT22;7928;43.614;1.456;2023-08-12T02:04:11;24.00;99.90
15656;DHT22;7928;43.614;1.456;2023-08-12T02:06:38;24.00;99.90
15656;DHT22;7928;43.614;1.456;2023-08-12T02:09:05;24.00;99.90
15656;DHT22;7928;43.614;1.456;2023-08-12T02:11:32;24.00;99.90
15656;DHT22;7928;43.614;1.456;2023-08-12T02:14:00;23.80;99.90
15656;DHT22;7928;43.614;1.456;2023-08-12T02:16:27;23.70;99.90
15656;DHT22;7928;43.614;1.456;2023-08-12T02:18:54;23.60;99.90
15656;DHT22;7928;43.614;1.456;2023-08-12T02:21:21;23.50;99.90
15656;DHT22;7928;43.614;1.456;2023-08-12T02:23:48;23.60;99.90
15656;DHT22;7928;43.614;1.456;2023-08-12T02:26:15;23.60;99.90
15656;DHT22;7928;43.614;1.456;2023-08-12T02:28:42;23.60;99.90
15656;DHT22;7928;43.614;1.456;2023-08-12T02:31:11;23.60;99.90
15656;DHT22;7928;43.614;1.456;2023-08-12T02:33:38;23.60;99.90
15656;DHT22;7928;43.614;1.456;2023-08-12T02:36:05;23.60;99.90
15656;DHT22;7928;43.614;1.456;2023-08-12T02:38:32;23.50;99.90
15656;DHT22;7928;43.614;1.456;2023-08-12T02:40:59;23.50;99.90
15656;DHT22;7928;43.614;1.456;2023-08-12T02:43:26;23.50;99.90
15656;DHT22;7928;43.614;1.456;2023-08-12T02:45:53;23.60;99.90
15656;DHT22;7928;43.614;1.456;2023-08-12T02:48:21;23.60;99.90
15656;DHT22;7928;43.614;1.456;2023-08-12T02:50:48;23.60;99.90
15656;DHT22;7928;43.614;1.456;2023-08-12T02:53:16;23.60;99.90
15656;DHT22;7928;43.614;1.456;2023-08-12T02:55:44;23.50;99.90
15656;DHT22;7928;43.614;1.456;2023-08-12T02:58:11;23.40;99.90
15656;DHT22;7928;43.614;1.456;2023-08-12T03:00:41;23.40;99.90
15656;DHT22;7928;43.614;1.456;2023-08-12T03:03:09;23.30;99.90
15656;DHT22;7928;43.614;1.456;2023-08-12T03:05:37;23.30;99.90
15656;DHT22;7928;43.614;1.456;2023-08-12T03:08:05;23.20;99.90
15656;DHT22;7928;43.614;1.456;2023-08-12T03:10:33;23.20;99.90
15656;DHT22;7928;43.614;1.456;2023-08-12T03:13:00;23.10;99.90
15656;DHT22;7928;43.614;1.456;2023-08-12T03:15:27;23.10;99.90
15656;DHT22;7928;43.614;1.456;2023-08-12T03:17:55;23.00;99.90
15656;DHT22;7928;43.614;1.456;2023-08-12T03:20:23;23.00;99.90
15656;DHT22;7928;43.614;1.456;2023-08-12T03:22:51;23.00;99.90
15656;DHT22;7928;43.614;1.456;2023-08-12T03:25:18;22.90;99.90
15656;DHT22;7928;43.614;1.456;2023-08-12T03:27:45;22.70;99.90
15656;DHT22;7928;43.614;1.456;2023-08-12T03:30:12;22.50;99.90
15656;DHT22;7928;43.614;1.456;2023-08-12T03:32:39;22.40;99.90
15656;DHT22;7928;43.614;1.456;2023-08-12T03:35:07;22.30;99.90
15656;DHT22;7928;43.614;1.456;2023-08-12T03:37:34;22.30;99.90
15656;DHT22;7928;43.614;1.456;2023-08-12T03:40:03;22.30;99.90
15656;DHT22;7928;43.614;1.456;2023-08-12T03:42:30;22.30;99.90
15656;DHT22;7928;43.614;1.456;2023-08-12T03:44:57;22.30;99.90
15656;DHT22;7928;43.614;1.456;2023-08-12T03:47:24;22.20;99.90
15656;DHT22;7928;43.614;1.456;2023-08-12T03:49:51;22.20;99.90
15656;DHT22;7928;43.614;1.456;2023-08-12T03:52:18;22.20;99.90
15656;DHT22;7928;43.614;1.456;2023-08-12T03:54:45;22.10;99.90
15656;DHT22;7928;43.614;1.456;2023-08-12T03:57:14;22.00;99.90
15656;DHT22;7928;43.614;1.456;2023-08-12T03:59:40;22.00;99.90
15656;DHT22;7928;43.614;1.456;2023-08-12T04:02:07;22.00;99.90
15656;DHT22;7928;43.614;1.456;2023-08-12T04:04:34;22.00;99.90
15656;DHT22;7928;43.614;1.456;2023-08-12T04:07:01;22.00;99.90
15656;DHT22;7928;43.614;1.456;2023-08-12T04:09:28;22.00;99.90
15656;DHT22;7928;43.614;1.456;2023-08-12T04:11:55;22.00;99.90
15656;DHT22;7928;43.614;1.456;2023-08-12T04:14:24;22.00;99.90
15656;DHT22;7928;43.614;1.456;2023-08-12T04:16:51;22.10;99.90
15656;DHT22;7928;43.614;1.456;2023-08-12T04:19:18;22.10;99.90
15656;DHT22;7928;43.614;1.456;2023-08-12T04:21:45;22.10;99.90
15656;DHT22;7928;43.614;1.456;2023-08-12T04:24:12;22.10;99.90
15656;DHT22;7928;43.614;1.456;2023-08-12T04:26:39;22.10;99.90
15656;DHT22;7928;43.614;1.456;2023-08-12T04:29:06;22.10;99.90
15656;DHT22;7928;43.614;1.456;2023-08-12T04:31:34;22.10;99.90
15656;DHT22;7928;43.614;1.456;2023-08-12T04:34:02;22.00;99.90
15656;DHT22;7928;43.614;1.456;2023-08-12T04:36:29;22.00;99.90
15656;DHT22;7928;43.614;1.456;2023-08-12T04:38:56;22.00;99.90
15656;DHT22;7928;43.614;1.456;2023-08-12T04:41:23;22.00;99.90
15656;DHT22;7928;43.614;1.456;2023-08-12T04:43:50;22.00;99.90
15656;DHT22;7928;43.614;1.456;2023-08-12T04:46:17;22.00;99.90
15656;DHT22;7928;43.614;1.456;2023-08-12T04:48:46;22.00;99.90
15656;DHT22;7928;43.614;1.456;2023-08-12T04:51:13;22.00;99.90
15656;DHT22;7928;43.614;1.456;2023-08-12T04:53:40;22.00;99.90
15656;DHT22;7928;43.614;1.456;2023-08-12T04:56:07;22.00;99.90
15656;DHT22;7928;43.614;1.456;2023-08-12T04:58:34;21.90;99.90
15656;DHT22;7928;43.614;1.456;2023-08-12T05:01:01;21.90;99.90
15656;DHT22;7928;43.614;1.456;2023-08-12T05:03:28;22.00;99.90
15656;DHT22;7928;43.614;1.456;2023-08-12T05:05:57;22.00;99.90
15656;DHT22;7928;43.614;1.456;2023-08-12T05:08:24;22.00;99.90
15656;DHT22;7928;43.614;1.456;2023-08-12T05:10:51;21.90;99.90
15656;DHT22;7928;43.614;1.456;2023-08-12T05:13:18;22.00;99.90
15656;DHT22;7928;43.614;1.456;2023-08-12T05:15:45;22.00;99.90
15656;DHT22;7928;43.614;1.456;2023-08-12T05:18:12;22.00;99.90
15656;DHT22;7928;43.614;1.456;2023-08-12T05:20:40;22.00;99.90
15656;DHT22;7928;43.614;1.456;2023-08-12T05:23:08;22.10;99.90
15656;DHT22;7928;43.614;1.456;2023-08-12T05:25:35;22.00;99.90
15656;DHT22;7928;43.614;1.456;2023-08-12T05:28:03;22.00;99.90
15656;DHT22;7928;43.614;1.456;2023-08-12T05:30:30;22.10;99.90
15656;DHT22;7928;43.614;1.456;2023-08-12T05:32:57;22.00;99.90
15656;DHT22;7928;43.614;1.456;2023-08-12T05:35:24;22.10;99.90
15656;DHT22;7928;43.614;1.456;2023-08-12T05:37:51;22.10;99.90
15656;DHT22;7928;43.614;1.456;2023-08-12T05:40:20;22.20;99.90
15656;DHT22;7928;43.614;1.456;2023-08-12T05:42:47;22.30;99.90
15656;DHT22;7928;43.614;1.456;2023-08-12T05:45:14;22.40;99.90
15656;DHT22;7928;43.614;1.456;2023-08-12T05:47:41;22.30;99.90
15656;DHT22;7928;43.614;1.456;2023-08-12T05:50:08;22.40;99.90
15656;DHT22;7928;43.614;1.456;2023-08-12T05:52:35;22.40;99.90
15656;DHT22;7928;43.614;1.456;2023-08-12T05:55:03;22.40;99.90
15656;DHT22;7928;43.614;1.456;2023-08-12T05:57:32;22.50;99.90
15656;DHT22;7928;43.614;1.456;2023-08-12T05:59:58;22.50;99.90
15656;DHT22;7928;43.614;1.456;2023-08-12T06:02:25;22.60;99.90
15656;DHT22;7928;43.614;1.456;2023-08-12T06:04:53;22.60;99.90
15656;DHT22;7928;43.614;1.456;2023-08-12T06:07:20;22.60;99.90
15656;DHT22;7928;43.614;1.456;2023-08-12T06:09:48;22.70;99.90
15656;DHT22;7928;43.614;1.456;2023-08-12T06:12:15;23.00;99.90
15656;DHT22;7928;43.614;1.456;2023-08-12T06:14:44;23.00;99.90
15656;DHT22;7928;43.614;1.456;2023-08-12T06:17:11;22.90;99.90
15656;DHT22;7928;43.614;1.456;2023-08-12T06:19:38;23.00;99.90
15656;DHT22;7928;43.614;1.456;2023-08-12T06:22:05;23.20;99.90
15656;DHT22;7928;43.614;1.456;2023-08-12T06:24:32;23.20;99.90
15656;DHT22;7928;43.614;1.456;2023-08-12T06:26:59;23.20;99.90
15656;DHT22;7928;43.614;1.456;2023-08-12T06:29:26;23.10;99.90
15656;DHT22;7928;43.614;1.456;2023-08-12T06:31:54;23.10;99.90
15656;DHT22;7928;43.614;1.456;2023-08-12T06:34:21;23.20;99.90
15656;DHT22;7928;43.614;1.456;2023-08-12T06:36:48;23.30;99.90
15656;DHT22;7928;43.614;1.456;2023-08-12T06:39:15;23.20;99.90
15656;DHT22;7928;43.614;1.456;2023-08-12T06:41:42;23.20;99.90
15656;DHT22;7928;43.614;1.456;2023-08-12T06:44:09;23.20;99.90
15656;DHT22;7928;43.614;1.456;2023-08-12T06:46:36;23.30;99.90
15656;DHT22;7928;43.614;1.456;2023-08-12T06:49:05;23.30;99.90
15656;DHT22;7928;43.614;1.456;2023-08-12T06:51:32;23.30;99.90
15656;DHT22;7928;43.614;1.456;2023-08-12T06:53:59;23.30;99.90
15656;DHT22;7928;43.614;1.456;2023-08-12T06:56:26;23.40;99.90
15656;DHT22;7928;43.614;1.456;2023-08-12T06:58:52;23.50;99.90
15656;DHT22;7928;43.614;1.456;2023-08-12T07:01:19;23.50;99.90
15656;DHT22;7928;43.614;1.456;2023-08-12T07:03:46;23.50;99.90
15656;DHT22;7928;43.614;1.456;2023-08-12T07:06:15;23.50;99.90
15656;DHT22;7928;43.614;1.456;2023-08-12T07:08:42;23.50;99.90
15656;DHT22;7928;43.614;1.456;2023-08-12T07:11:09;23.40;99.90
15656;DHT22;7928;43.614;1.456;2023-08-12T07:13:36;23.40;99.90
15656;DHT22;7928;43.614;1.456;2023-08-12T07:16:03;23.50;99.90
15656;DHT22;7928;43.614;1.456;2023-08-12T07:18:30;23.40;99.90
15656;DHT22;7928;43.614;1.456;2023-08-12T07:20:57;23.60;99.90
15656;DHT22;7928;43.614;1.456;2023-08-12T07:23:26;23.70;99.90
15656;DHT22;7928;43.614;1.456;2023-08-12T07:25:53;23.80;99.90
15656;DHT22;7928;43.614;1.456;2023-08-12T07:28:21;23.70;99.90
15656;DHT22;7928;43.614;1.456;2023-08-12T07:30:48;23.70;99.90
15656;DHT22;7928;43.614;1.456;2023-08-12T07:33:15;23.70;99.90
15656;DHT22;7928;43.614;1.456;2023-08-12T07:35:42;23.80;99.90
15656;DHT22;7928;43.614;1.456;2023-08-12T07:38:09;24.00;99.90
15656;DHT22;7928;43.614;1.456;2023-08-12T07:40:37;24.00;99.90
15656;DHT22;7928;43.614;1.456;2023-08-12T07:43:04;23.90;99.90
15656;DHT22;7928;43.614;1.456;2023-08-12T07:45:32;24.00;99.90
15656;DHT22;7928;43.614;1.456;2023-08-12T07:47:59;24.10;99.90
15656;DHT22;7928;43.614;1.456;2023-08-12T07:50:26;24.10;99.90
15656;DHT22;7928;43.614;1.456;2023-08-12T07:52:53;24.20;99.90
15656;DHT22;7928;43.614;1.456;2023-08-12T07:55:20;24.40;99.90
15656;DHT22;7928;43.614;1.456;2023-08-12T07:57:48;24.60;99.90
15656;DHT22;7928;43.614;1.456;2023-08-12T08:00:15;24.50;99.90
15656;DHT22;7928;43.614;1.456;2023-08-12T08:02:42;24.70;99.90
15656;DHT22;7928;43.614;1.456;2023-08-12T08:05:09;24.90;99.90
15656;DHT22;7928;43.614;1.456;2023-08-12T08:07:36;25.10;99.90
15656;DHT22;7928;43.614;1.456;2023-08-12T08:10:04;25.30;99.90
15656;DHT22;7928;43.614;1.456;2023-08-12T08:12:31;25.60;99.90
15656;DHT22;7928;43.614;1.456;2023-08-12T08:14:59;25.70;99.90
15656;DHT22;7928;43.614;1.456;2023-08-12T08:17:26;25.80;99.90
15656;DHT22;7928;43.614;1.456;2023-08-12T08:19:53;25.60;99.90
15656;DHT22;7928;43.614;1.456;2023-08-12T08:22:20;25.50;99.90
15656;DHT22;7928;43.614;1.456;2023-08-12T08:24:47;25.50;99.90
15656;DHT22;7928;43.614;1.456;2023-08-12T08:27:14;25.60;99.90
15656;DHT22;7928;43.614;1.456;2023-08-12T08:29:41;25.80;99.90
15656;DHT22;7928;43.614;1.456;2023-08-12T08:32:09;25.90;99.90
15656;DHT22;7928;43.614;1.456;2023-08-12T08:34:36;25.90;99.90
15656;DHT22;7928;43.614;1.456;2023-08-12T08:37:03;26.00;99.90
15656;DHT22;7928;43.614;1.456;2023-08-12T08:39:30;26.10;99.90
15656;DHT22;7928;43.614;1.456;2023-08-12T08:41:58;26.20;99.90
15656;DHT22;7928;43.614;1.456;2023-08-12T08:44:29;26.30;99.90
15656;DHT22;7928;43.614;1.456;2023-08-12T08:46:58;26.30;99.90
15656;DHT22;7928;43.614;1.456;2023-08-12T08:49:28;26.30;99.90
15656;DHT22;7928;43.614;1.456;2023-08-12T08:51:59;26.40;99.90
15656;DHT22;7928;43.614;1.456;2023-08-12T08:54:27;26.60;99.90
15656;DHT22;7928;43.614;1.456;2023-08-12T08:56:54;26.60;99.90
15656;DHT22;7928;43.614;1.456;2023-08-12T08:59:21;26.70;99.90
15656;DHT22;7928;43.614;1.456;2023-08-12T09:01:49;26.60;99.90
15656;DHT22;7928;43.614;1.456;2023-08-12T09:04:17;26.70;99.90
15656;DHT22;7928;43.614;1.456;2023-08-12T09:06:47;26.70;99.90
15656;DHT22;7928;43.614;1.456;2023-08-12T09:09:16;26.70;99.90
15656;DHT22;7928;43.614;1.456;2023-08-12T09:11:45;26.90;99.90
15656;DHT22;7928;43.614;1.456;2023-08-12T09:14:12;27.00;99.90
15656;DHT22;7928;43.614;1.456;2023-08-12T09:16:39;27.00;99.90
15656;DHT22;7928;43.614;1.456;2023-08-12T09:19:06;26.90;99.90
15656;DHT22;7928;43.614;1.456;2023-08-12T09:21:33;27.10;99.90
15656;DHT22;7928;43.614;1.456;2023-08-12T09:24:04;27.20;99.90
15656;DHT22;7928;43.614;1.456;2023-08-12T09:26:31;27.40;99.90
15656;DHT22;7928;43.614;1.456;2023-08-12T09:28:59;27.40;99.90
15656;DHT22;7928;43.614;1.456;2023-08-12T09:31:28;27.40;99.90
15656;DHT22;7928;43.614;1.456;2023-08-12T09:33:58;27.30;99.90
15656;DHT22;7928;43.614;1.456;2023-08-12T09:36:28;27.30;99.90
15656;DHT22;7928;43.614;1.456;2023-08-12T09:38:56;27.40;99.90
15656;DHT22;7928;43.614;1.456;2023-08-12T09:41:26;27.50;99.90
15656;DHT22;7928;43.614;1.456;2023-08-12T09:43:54;27.70;99.90
15656;DHT22;7928;43.614;1.456;2023-08-12T09:46:22;27.80;99.90
15656;DHT22;7928;43.614;1.456;2023-08-12T09:48:50;27.90;99.90
15656;DHT22;7928;43.614;1.456;2023-08-12T09:51:18;28.10;99.90
15656;DHT22;7928;43.614;1.456;2023-08-12T09:53:48;28.20;99.90
15656;DHT22;7928;43.614;1.456;2023-08-12T09:56:18;28.30;99.90
15656;DHT22;7928;43.614;1.456;2023-08-12T09:58:49;28.50;99.90
15656;DHT22;7928;43.614;1.456;2023-08-12T10:01:18;28.40;99.90
15656;DHT22;7928;43.614;1.456;2023-08-12T10:03:49;28.40;99.90
15656;DHT22;7928;43.614;1.456;2023-08-12T10:06:17;28.60;99.90
15656;DHT22;7928;43.614;1.456;2023-08-12T10:08:46;28.90;99.90
15656;DHT22;7928;43.614;1.456;2023-08-12T10:11:14;28.90;99.90
15656;DHT22;7928;43.614;1.456;2023-08-12T10:13:41;29.10;99.90
15656;DHT22;7928;43.614;1.456;2023-08-12T10:16:10;29.30;99.90
15656;DHT22;7928;43.614;1.456;2023-08-12T10:18:39;29.40;99.90
15656;DHT22;7928;43.614;1.456;2023-08-12T10:21:09;29.60;99.90
15656;DHT22;7928;43.614;1.456;2023-08-12T10:23:37;29.80;99.90
15656;DHT22;7928;43.614;1.456;2023-08-12T10:26:05;29.90;99.90
15656;DHT22;7928;43.614;1.456;2023-08-12T10:28:33;30.10;99.90
15656;DHT22;7928;43.614;1.456;2023-08-12T10:31:03;30.10;99.90
15656;DHT22;7928;43.614;1.456;2023-08-12T10:33:35;29.80;99.90
15656;DHT22;7928;43.614;1.456;2023-08-12T10:36:03;29.90;99.90
15656;DHT22;7928;43.614;1.456;2023-08-12T10:38:32;30.00;99.90
15656;DHT22;7928;43.614;1.456;2023-08-12T10:41:17;30.30;99.90
15656;DHT22;7928;43.614;1.456;2023-08-12T10:43:54;30.70;99.90
15656;DHT22;7928;43.614;1.456;2023-08-12T10:46:23;31.20;99.90
15656;DHT22;7928;43.614;1.456;2023-08-12T10:48:59;31.30;99.90
15656;DHT22;7928;43.614;1.456;2023-08-12T10:51:48;31.40;99.90
15656;DHT22;7928;43.614;1.456;2023-08-12T10:54:17;31.80;99.90
15656;DHT22;7928;43.614;1.456;2023-08-12T10:57:09;32.20;99.90
15656;DHT22;7928;43.614;1.456;2023-08-12T10:59:51;32.90;99.70
15656;DHT22;7928;43.614;1.456;2023-08-12T11:02:20;33.70;98.30
15656;DHT22;7928;43.614;1.456;2023-08-12T11:04:52;34.20;97.50
15656;DHT22;7928;43.614;1.456;2023-08-12T11:07:20;34.10;96.30
15656;DHT22;7928;43.614;1.456;2023-08-12T11:09:52;34.50;95.90
15656;DHT22;7928;43.614;1.456;2023-08-12T11:12:31;35.30;94.80
15656;DHT22;7928;43.614;1.456;2023-08-12T11:14:59;35.50;93.90
15656;DHT22;7928;43.614;1.456;2023-08-12T11:17:33;35.80;93.20
15656;DHT22;7928;43.614;1.456;2023-08-12T11:20:03;36.00;92.60
15656;DHT22;7928;43.614;1.456;2023-08-12T11:22:32;36.10;91.90
15656;DHT22;7928;43.614;1.456;2023-08-12T11:25:02;36.30;91.20
15656;DHT22;7928;43.614;1.456;2023-08-12T11:27:39;36.70;91.10
15656;DHT22;7928;43.614;1.456;2023-08-12T11:30:07;37.10;90.60
15656;DHT22;7928;43.614;1.456;2023-08-12T11:32:36;37.70;90.00
15656;DHT22;7928;43.614;1.456;2023-08-12T11:35:05;37.70;88.80
15656;DHT22;7928;43.614;1.456;2023-08-12T11:37:33;37.80;87.60
15656;DHT22;7928;43.614;1.456;2023-08-12T11:40:01;38.30;86.70
15656;DHT22;7928;43.614;1.456;2023-08-12T11:42:30;38.80;84.60
15656;DHT22;7928;43.614;1.456;2023-08-12T11:44:57;39.20;83.30
15656;DHT22;7928;43.614;1.456;2023-08-12T11:47:24;39.50;82.70
15656;DHT22;7928;43.614;1.456;2023-08-12T11:49:52;39.10;81.30
15656;DHT22;7928;43.614;1.456;2023-08-12T11:52:21;39.00;80.30
15656;DHT22;7928;43.614;1.456;2023-08-12T11:54:49;39.40;81.40
15656;DHT22;7928;43.614;1.456;2023-08-12T11:57:16;39.70;80.10
15656;DHT22;7928;43.614;1.456;2023-08-12T11:59:43;39.70;80.20
15656;DHT22;7928;43.614;1.456;2023-08-12T12:02:11;40.30;79.60
15656;DHT22;7928;43.614;1.456;2023-08-12T12:04:41;40.50;77.80
15656;DHT22;7928;43.614;1.456;2023-08-12T12:07:20;40.70;76.00
15656;DHT22;7928;43.614;1.456;2023-08-12T12:09:50;41.00;75.90
15656;DHT22;7928;43.614;1.456;2023-08-12T12:12:21;40.60;73.70
15656;DHT22;7928;43.614;1.456;2023-08-12T12:14:48;39.90;76.30
15656;DHT22;7928;43.614;1.456;2023-08-12T12:17:15;40.60;74.80
15656;DHT22;7928;43.614;1.456;2023-08-12T12:19:42;41.10;73.60
15656;DHT22;7928;43.614;1.456;2023-08-12T12:22:09;41.10;73.00
15656;DHT22;7928;43.614;1.456;2023-08-12T12:24:46;40.80;71.70
15656;DHT22;7928;43.614;1.456;2023-08-12T12:27:14;40.70;71.80
15656;DHT22;7928;43.614;1.456;2023-08-12T12:29:41;40.20;72.40
15656;DHT22;7928;43.614;1.456;2023-08-12T12:32:09;39.90;72.20
15656;DHT22;7928;43.614;1.456;2023-08-12T12:34:37;39.40;72.20
15656;DHT22;7928;43.614;1.456;2023-08-12T12:37:04;40.00;72.50
15656;DHT22;7928;43.614;1.456;2023-08-12T12:39:31;41.20;71.30
15656;DHT22;7928;43.614;1.456;2023-08-12T12:42:00;41.90;69.70
15656;DHT22;7928;43.614;1.456;2023-08-12T12:44:27;42.50;68.70
15656;DHT22;7928;43.614;1.456;2023-08-12T12:46:54;42.70;67.20
15656;DHT22;7928;43.614;1.456;2023-08-12T12:49:21;43.10;66.40
15656;DHT22;7928;43.614;1.456;2023-08-12T12:51:48;43.30;66.00
15656;DHT22;7928;43.614;1.456;2023-08-12T12:54:15;42.30;65.60
15656;DHT22;7928;43.614;1.456;2023-08-12T12:56:42;41.70;66.30
15656;DHT22;7928;43.614;1.456;2023-08-12T12:59:11;41.80;67.00
15656;DHT22;7928;43.614;1.456;2023-08-12T13:01:40;42.60;66.20
15656;DHT22;7928;43.614;1.456;2023-08-12T13:04:07;43.40;64.30
15656;DHT22;7928;43.614;1.456;2023-08-12T13:06:35;43.90;63.20
15656;DHT22;7928;43.614;1.456;2023-08-12T13:09:03;43.60;63.30
15656;DHT22;7928;43.614;1.456;2023-08-12T13:11:32;43.20;63.70
15656;DHT22;7928;43.614;1.456;2023-08-12T13:14:00;43.60;62.80
15656;DHT22;7928;43.614;1.456;2023-08-12T13:16:28;43.30;62.00
15656;DHT22;7928;43.614;1.456;2023-08-12T13:18:55;43.50;62.10
15656;DHT22;7928;43.614;1.456;2023-08-12T13:21:24;43.80;61.50
15656;DHT22;7928;43.614;1.456;2023-08-12T13:23:51;43.20;61.60
15656;DHT22;7928;43.614;1.456;2023-08-12T13:26:18;43.40;61.90
15656;DHT22;7928;43.614;1.456;2023-08-12T13:28:46;43.30;61.20
15656;DHT22;7928;43.614;1.456;2023-08-12T13:31:13;42.50;62.30
15656;DHT22;7928;43.614;1.456;2023-08-12T13:33:42;42.00;62.40
15656;DHT22;7928;43.614;1.456;2023-08-12T13:36:09;42.60;62.40
15656;DHT22;7928;43.614;1.456;2023-08-12T13:38:36;42.40;61.70
15656;DHT22;7928;43.614;1.456;2023-08-12T13:41:03;42.20;62.10
15656;DHT22;7928;43.614;1.456;2023-08-12T13:43:30;42.50;62.30
15656;DHT22;7928;43.614;1.456;2023-08-12T13:45:57;42.50;61.70
15656;DHT22;7928;43.614;1.456;2023-08-12T13:48:24;41.90;62.00
15656;DHT22;7928;43.614;1.456;2023-08-12T13:50:52;41.80;61.90
15656;DHT22;7928;43.614;1.456;2023-08-12T13:53:19;42.00;62.10
15656;DHT22;7928;43.614;1.456;2023-08-12T13:55:46;41.90;61.60
15656;DHT22;7928;43.614;1.456;2023-08-12T13:58:13;41.80;61.90
15656;DHT22;7928;43.614;1.456;2023-08-12T14:00:40;41.60;62.00
15656;DHT22;7928;43.614;1.456;2023-08-12T14:03:07;41.70;62.40
15656;DHT22;7928;43.614;1.456;2023-08-12T14:05:34;42.50;62.60
15656;DHT22;7928;43.614;1.456;2023-08-12T14:08:03;43.40;61.40
15656;DHT22;7928;43.614;1.456;2023-08-12T14:10:30;43.80;61.10
15656;DHT22;7928;43.614;1.456;2023-08-12T14:12:57;44.00;60.10
15656;DHT22;7928;43.614;1.456;2023-08-12T14:15:24;44.50;59.80
15656;DHT22;7928;43.614;1.456;2023-08-12T14:17:51;44.90;59.30
15656;DHT22;7928;43.614;1.456;2023-08-12T14:20:18;44.90;58.70
15656;DHT22;7928;43.614;1.456;2023-08-12T14:22:45;44.90;59.00
15656;DHT22;7928;43.614;1.456;2023-08-12T14:25:13;44.30;58.80
15656;DHT22;7928;43.614;1.456;2023-08-12T14:27:40;44.10;58.50
15656;DHT22;7928;43.614;1.456;2023-08-12T14:30:08;44.50;58.70
15656;DHT22;7928;43.614;1.456;2023-08-12T14:32:36;45.00;58.10
15656;DHT22;7928;43.614;1.456;2023-08-12T14:35:04;44.50;58.00
15656;DHT22;7928;43.614;1.456;2023-08-12T14:37:31;43.20;58.30
15656;DHT22;7928;43.614;1.456;2023-08-12T14:39:58;42.50;59.30
15656;DHT22;7928;43.614;1.456;2023-08-12T14:42:27;42.40;59.30
15656;DHT22;7928;43.614;1.456;2023-08-12T14:44:54;42.80;59.50
15656;DHT22;7928;43.614;1.456;2023-08-12T14:47:21;43.00;59.40
15656;DHT22;7928;43.614;1.456;2023-08-12T14:49:48;43.50;59.00
15656;DHT22;7928;43.614;1.456;2023-08-12T14:52:18;42.40;59.40
15656;DHT22;7928;43.614;1.456;2023-08-12T14:54:45;42.60;59.60
15656;DHT22;7928;43.614;1.456;2023-08-12T14:57:12;43.10;59.10
15656;DHT22;7928;43.614;1.456;2023-08-12T14:59:41;42.70;59.40
15656;DHT22;7928;43.614;1.456;2023-08-12T15:02:08;43.00;59.60
15656;DHT22;7928;43.614;1.456;2023-08-12T15:04:35;43.10;59.10
15656;DHT22;7928;43.614;1.456;2023-08-12T15:07:02;43.20;59.00
15656;DHT22;7928;43.614;1.456;2023-08-12T15:09:29;42.10;59.00
15656;DHT22;7928;43.614;1.456;2023-08-12T15:11:56;41.80;60.10
15656;DHT22;7928;43.614;1.456;2023-08-12T15:14:23;42.00;59.50
15656;DHT22;7928;43.614;1.456;2023-08-12T15:16:52;42.60;58.80
15656;DHT22;7928;43.614;1.456;2023-08-12T15:19:19;42.80;59.30
15656;DHT22;7928;43.614;1.456;2023-08-12T15:21:46;42.90;58.60
15656;DHT22;7928;43.614;1.456;2023-08-12T15:24:14;42.90;58.70
15656;DHT22;7928;43.614;1.456;2023-08-12T15:26:41;42.70;58.30
15656;DHT22;7928;43.614;1.456;2023-08-12T15:29:08;42.40;58.90
15656;DHT22;7928;43.614;1.456;2023-08-12T15:31:36;42.40;58.90
15656;DHT22;7928;43.614;1.456;2023-08-12T15:34:05;41.90;59.20
15656;DHT22;7928;43.614;1.456;2023-08-12T15:36:31;41.50;59.50
15656;DHT22;7928;43.614;1.456;2023-08-12T15:39:01;41.20;59.60
15656;DHT22;7928;43.614;1.456;2023-08-12T15:41:28;40.90;59.80
15656;DHT22;7928;43.614;1.456;2023-08-12T15:43:55;41.50;59.60
15656;DHT22;7928;43.614;1.456;2023-08-12T15:46:22;41.30;59.90
15656;DHT22;7928;43.614;1.456;2023-08-12T15:48:49;41.20;59.80